Time;durP1;ratioP1;P1;durP2;ratioP2;P2;SDS_P1;SDS_P2;PMS_P1;PMS_P2;Temp;Humidity;BMP_temperature;BMP_pressure;BME280_temperature;BME280_humidity;BME280_pressure;Samples;Min_cycle;Max_cycle;Signal;HPM_P1;HPM_P2
2023/03/31 00:01:10;;;;;;;5.10;2.60;;;10.70;99.90;;;;;;5061649;28;20476;-82
2023/03/31 00:03:42;;;;;;;5.90;3.20;;;10.70;99.90;;;;;;5066252;28;20455;-82
2023/03/31 00:06:11;;;;;;;3.27;2.93;;;10.70;99.90;;;;;;5064942;28;20487;-82
2023/03/31 00:08:39;;;;;;;3.93;2.50;;;10.70;99.90;;;;;;5063655;28;20971;-83
2023/03/31 00:11:07;;;;;;;5.87;3.60;;;10.70;99.90;;;;;;5061986;28;20459;-83
2023/03/31 00:13:36;;;;;;;9.83;5.43;;;10.70;99.90;;;;;;5062576;28;20435;-82
2023/03/31 00:16:06;;;;;;;10.70;5.10;;;10.60;99.90;;;;;;5061253;28;20464;-83
2023/03/31 00:18:34;;;;;;;7.60;4.07;;;10.60;99.90;;;;;;5060763;28;20429;-82
2023/03/31 00:21:08;;;;;;;3.07;2.83;;;10.60;99.90;;;;;;5059675;28;20445;-82
2023/03/31 00:23:35;;;;;;;4.70;2.77;;;10.70;1.00;;;;;;5060408;28;20411;-82
2023/03/31 00:26:01;;;;;;;8.30;2.53;;;10.60;99.90;;;;;;5059816;28;20502;-82
2023/03/31 00:28:28;;;;;;;3.73;3.27;;;10.60;99.90;;;;;;5060216;28;20503;-82
2023/03/31 00:31:02;;;;;;;2.60;2.40;;;11.00;1.00;;;;;;5060057;28;20457;-82
2023/03/31 00:33:29;;;;;;;3.10;2.90;;;10.50;99.90;;;;;;5061931;28;20412;-82
2023/03/31 00:36:00;;;;;;;3.90;2.40;;;10.50;99.90;;;;;;5074947;28;20563;-82
2023/03/31 00:38:27;;;;;;;5.53;3.07;;;10.50;1.00;;;;;;5075349;28;20503;-82
2023/03/31 00:40:54;;;;;;;6.50;2.70;;;10.60;99.90;;;;;;5066594;28;20422;-81
2023/03/31 00:43:30;;;;;;;3.53;2.47;;;10.50;99.90;;;;;;5059702;28;20448;-82
2023/03/31 00:46:16;;;;;;;5.03;2.80;;;10.50;99.90;;;;;;5058642;28;20555;-81
2023/03/31 00:48:47;;;;;;;3.83;2.27;;;10.70;1.00;;;;;;5065601;28;20415;-81
2023/03/31 00:51:14;;;;;;;5.03;2.43;;;10.50;1.00;;;;;;5075707;28;20436;-81
2023/03/31 00:53:41;;;;;;;5.53;2.33;;;10.50;99.90;;;;;;5076512;28;20503;-81
2023/03/31 00:56:13;;;;;;;3.43;2.13;;;10.50;99.90;;;;;;5067996;28;20821;-81
2023/03/31 00:58:42;;;;;;;5.53;2.50;;;10.50;99.90;;;;;;5058605;28;20446;-81
2023/03/31 01:01:14;;;;;;;2.77;2.37;;;10.50;1.00;;;;;;5058045;28;20454;-81
2023/03/31 01:03:45;;;;;;;6.57;3.43;;;10.40;99.90;;;;;;5058248;28;20440;-81
2023/03/31 01:06:15;;;;;;;3.57;2.70;;;10.40;99.90;;;;;;5062941;28;20541;-81
2023/03/31 01:08:44;;;;;;;4.30;2.30;;;10.40;99.90;;;;;;5063806;28;20946;-81
2023/03/31 01:11:15;;;;;;;5.93;2.50;;;10.30;99.90;;;;;;5066210;28;20524;-81
2023/03/31 01:13:44;;;;;;;3.00;2.20;;;10.30;1.00;;;;;;5058308;28;20406;-81
2023/03/31 01:16:13;;;;;;;4.20;2.50;;;10.30;99.90;;;;;;5058108;28;20475;-81
2023/03/31 01:18:40;;;;;;;6.83;2.77;;;10.20;1.00;;;;;;5057979;28;20453;-81
2023/03/31 01:21:46;;;;;;;2.43;2.27;;;10.10;1.00;;;;;;5058673;28;20415;-81
2023/03/31 01:24:46;;;;;;;3.43;2.43;;;10.10;1.00;;;;;;5061147;28;20491;-81
2023/03/31 01:27:47;;;;;;;6.27;2.70;;;10.00;1.00;;;;;;5070256;22;20467;-81
2023/03/31 01:30:51;;;;;;;5.30;2.07;;;10.00;1.00;;;;;;5041518;28;20831;-81
2023/03/31 01:33:54;;;;;;;2.43;1.80;;;10.00;1.00;;;;;;5015179;28;20447;-83
2023/03/31 01:36:48;;;;;;;4.33;2.37;;;9.90;1.00;;;;;;5022689;28;20462;-82
2023/03/31 01:39:59;;;;;;;2.30;2.03;;;9.90;1.00;;;;;;5042341;28;20464;-82
2023/03/31 01:42:34;;;;;;;5.40;2.03;;;10.00;1.00;;;;;;5024894;28;20472;-81
2023/03/31 01:45:11;;;;;;;2.30;2.10;;;10.00;1.00;;;;;;5041316;28;20942;-82
2023/03/31 01:47:43;;;;;;;6.13;2.07;;;10.00;1.00;;;;;;5041280;28;20524;-82
2023/03/31 01:50:19;;;;;;;6.70;2.20;;;10.00;1.00;;;;;;5040933;28;20476;-81
2023/03/31 01:52:49;;;;;;;4.87;2.60;;;10.20;1.00;;;;;;5040590;28;20411;-81
2023/03/31 01:55:24;;;;;;;3.57;2.60;;;10.00;1.00;;;;;;5040596;28;20411;-81
2023/03/31 01:57:54;;;;;;;9.07;2.47;;;10.40;1.00;;;;;;5040723;28;20463;-81
2023/03/31 02:00:28;;;;;;;4.13;2.30;;;10.00;1.00;;;;;;5041723;28;20452;-80
2023/03/31 02:02:59;;;;;;;3.20;2.00;;;10.10;1.00;;;;;;5042668;28;20440;-83
2023/03/31 02:05:30;;;;;;;3.20;2.37;;;9.90;1.00;;;;;;5048040;28;20501;-83
2023/03/31 02:08:00;;;;;;;6.20;2.27;;;10.10;1.00;;;;;;5040518;28;20437;-81
2023/03/31 02:10:31;;;;;;;5.10;2.07;;;10.10;1.00;;;;;;5039978;28;20490;-81
2023/03/31 02:13:01;;;;;;;7.50;3.00;;;10.00;1.00;;;;;;5039324;28;20436;-81
2023/03/31 02:15:31;;;;;;;3.50;2.43;;;9.90;1.00;;;;;;5039058;28;20911;-80
2023/03/31 02:18:04;;;;;;;7.80;2.20;;;10.00;1.00;;;;;;5039558;28;20415;-80
2023/03/31 02:20:33;;;;;;;3.17;1.83;;;10.00;1.00;;;;;;5040711;28;20520;-81
2023/03/31 02:23:00;;;;;;;2.63;2.17;;;10.00;1.00;;;;;;5038963;28;20428;-81
2023/03/31 02:25:35;;;;;;;4.23;1.90;;;10.00;1.00;;;;;;5047252;28;20479;-80
2023/03/31 02:28:06;;;;;;;2.43;2.13;;;10.00;1.00;;;;;;5045053;28;20906;-80
2023/03/31 02:30:42;;;;;;;5.77;2.20;;;10.00;1.00;;;;;;5041645;28;20471;-83
2023/03/31 02:33:09;;;;;;;3.63;1.70;;;10.00;1.00;;;;;;5044472;28;20798;-82
2023/03/31 02:35:36;;;;;;;13.70;7.47;;;10.20;1.00;;;;;;5040250;28;20445;-82
2023/03/31 02:38:05;;;;;;;5.03;1.93;;;10.00;1.00;;;;;;5039956;28;20956;-81
2023/03/31 02:40:33;;;;;;;2.33;1.73;;;10.00;1.00;;;;;;5040032;28;20431;-81
2023/03/31 02:43:01;;;;;;;3.83;1.90;;;10.00;1.00;;;;;;5040113;28;20463;-82
2023/03/31 02:45:39;;;;;;;5.40;2.07;;;10.10;1.00;;;;;;5045917;28;20450;-81
2023/03/31 02:48:10;;;;;;;4.10;1.67;;;10.10;1.00;;;;;;5040364;28;20442;-81
2023/03/31 02:50:55;;;;;;;1.97;1.80;;;10.10;1.00;;;;;;5039355;28;20412;-82
2023/03/31 02:53:32;;;;;;;7.80;2.23;;;10.10;1.00;;;;;;5040396;28;20399;-81
2023/03/31 02:56:13;;;;;;;3.00;1.90;;;10.10;1.00;;;;;;5039990;28;20466;-82
2023/03/31 02:59:07;;;;;;;5.70;2.20;;;10.10;1.00;;;;;;5039829;28;20457;-82
2023/03/31 03:01:45;;;;;;;4.93;2.53;;;10.10;1.00;;;;;;5039716;28;20428;-82
2023/03/31 03:04:33;;;;;;;2.13;1.87;;;10.10;1.00;;;;;;5044553;28;20504;-81
2023/03/31 03:07:08;;;;;;;2.40;1.97;;;10.10;1.00;;;;;;5039384;28;21020;-81
2023/03/31 03:09:45;;;;;;;4.33;2.30;;;10.40;1.00;;;;;;5038629;28;20972;-82
2023/03/31 03:12:17;;;;;;;2.80;2.40;;;10.20;1.00;;;;;;5039047;28;20411;-81
2023/03/31 03:14:51;;;;;;;5.03;2.47;;;10.20;1.00;;;;;;5039396;28;20437;-82
2023/03/31 03:17:23;;;;;;;5.40;1.73;;;10.20;1.00;;;;;;5044422;28;20486;-82
2023/03/31 03:19:55;;;;;;;2.83;1.63;;;10.40;1.00;;;;;;5056764;28;20524;-83
2023/03/31 03:22:23;;;;;;;4.07;1.73;;;10.20;1.00;;;;;;5059547;28;20416;-81
2023/03/31 03:24:50;;;;;;;4.37;1.60;;;10.20;1.00;;;;;;5058992;28;20490;-80
2023/03/31 03:27:18;;;;;;;4.40;1.80;;;10.20;1.00;;;;;;5054919;28;20555;-79
2023/03/31 03:29:46;;;;;;;4.10;2.30;;;10.30;1.00;;;;;;5057083;28;20461;-81
2023/03/31 03:32:13;;;;;;;2.17;1.97;;;10.20;1.00;;;;;;5056622;28;20446;-83
2023/03/31 03:34:40;;;;;;;3.37;1.80;;;10.20;1.00;;;;;;5050587;28;20447;-82
2023/03/31 03:37:07;;;;;;;4.40;2.10;;;10.40;1.00;;;;;;5043589;28;20471;-82
2023/03/31 03:39:34;;;;;;;2.70;1.30;;;10.20;1.00;;;;;;5043299;28;20432;-82
2023/03/31 03:42:01;;;;;;;2.87;2.20;;;10.20;1.00;;;;;;5046849;28;20863;-81
2023/03/31 03:44:29;;;;;;;1.63;1.53;;;10.20;1.00;;;;;;5058680;28;20423;-81
2023/03/31 03:46:56;;;;;;;7.13;2.57;;;10.20;1.00;;;;;;5058766;28;20537;-80
2023/03/31 03:49:23;;;;;;;4.40;3.00;;;10.20;1.00;;;;;;5050617;28;20446;-81
2023/03/31 03:51:50;;;;;;;2.97;1.93;;;10.20;1.00;;;;;;5042941;28;20427;-81
2023/03/31 03:54:17;;;;;;;2.60;1.83;;;10.20;1.00;;;;;;5040343;28;20427;-80
2023/03/31 03:56:44;;;;;;;6.43;2.57;;;10.20;1.00;;;;;;5039027;28;20530;-81
2023/03/31 03:59:11;;;;;;;4.77;2.17;;;10.20;1.00;;;;;;5042513;28;20824;-81
2023/03/31 04:01:39;;;;;;;5.20;2.10;;;10.20;1.00;;;;;;5038446;28;20447;-81
2023/03/31 04:04:06;;;;;;;9.60;2.20;;;10.20;1.00;;;;;;5038269;28;20959;-81
2023/03/31 04:06:33;;;;;;;6.23;2.30;;;10.40;1.00;;;;;;5037630;28;20804;-81
2023/03/31 04:09:00;;;;;;;3.57;2.20;;;10.20;1.00;;;;;;5037473;28;20427;-81
2023/03/31 04:11:28;;;;;;;3.13;2.67;;;10.20;1.00;;;;;;5038010;28;20452;-81
2023/03/31 04:13:55;;;;;;;2.83;2.63;;;10.20;1.00;;;;;;5040859;28;20428;-82
2023/03/31 04:16:24;;;;;;;3.80;1.90;;;10.20;1.00;;;;;;5041412;28;20472;-82
2023/03/31 04:18:55;;;;;;;3.80;2.10;;;10.20;1.00;;;;;;5039619;28;20452;-82
2023/03/31 04:21:23;;;;;;;3.80;2.60;;;10.10;1.00;;;;;;5041930;28;20919;-82
2023/03/31 04:23:57;;;;;;;4.67;1.90;;;10.20;1.00;;;;;;5050130;28;20471;-82
2023/03/31 04:26:29;;;;;;;2.83;2.00;;;9.70;1.00;;;;;;5052302;28;20479;-81
2023/03/31 04:28:59;;;;;;;4.93;2.83;;;10.20;1.00;;;;;;5054956;28;20445;-79
2023/03/31 04:31:29;;;;;;;2.40;2.20;;;10.20;1.00;;;;;;5047885;28;20440;-82
2023/03/31 04:34:01;;;;;;;12.03;2.30;;;10.10;35.80;;;;;;5044149;28;20407;-81
2023/03/31 04:36:30;;;;;;;3.50;1.83;;;10.10;1.00;;;;;;5040550;28;20464;-82
2023/03/31 04:38:57;;;;;;;7.37;2.93;;;10.10;1.00;;;;;;5039888;28;20504;-81
2023/03/31 04:41:26;;;;;;;7.50;3.07;;;10.10;1.00;;;;;;5037262;28;20483;-80
2023/03/31 04:43:53;;;;;;;4.23;2.10;;;10.00;1.00;;;;;;5037177;28;20535;-81
2023/03/31 04:46:20;;;;;;;8.83;2.97;;;10.00;1.00;;;;;;5039701;28;20556;-82
2023/03/31 04:48:47;;;;;;;6.67;2.20;;;10.00;1.00;;;;;;5041255;28;20491;-81
2023/03/31 04:51:15;;;;;;;8.13;2.53;;;10.00;1.00;;;;;;5039390;28;20429;-81
2023/03/31 04:53:42;;;;;;;3.07;2.77;;;10.00;1.00;;;;;;5037052;28;20418;-81
2023/03/31 04:56:09;;;;;;;5.90;2.30;;;10.00;86.40;;;;;;5036341;28;20473;-81
2023/03/31 04:58:36;;;;;;;5.22;2.60;;;10.10;1.00;;;;;;5037385;28;20932;-80
2023/03/31 05:01:05;;;;;;;2.70;1.97;;;10.10;1.00;;;;;;5038282;28;20346;-81
2023/03/31 05:03:31;;;;;;;5.40;2.40;;;10.00;29.60;;;;;;5037788;28;20427;-82
2023/03/31 05:05:58;;;;;;;4.97;2.20;;;10.10;1.00;;;;;;5038309;28;20468;-82
2023/03/31 05:08:28;;;;;;;4.03;2.20;;;10.00;1.00;;;;;;5037573;28;20587;-82
2023/03/31 05:10:55;;;;;;;8.47;2.50;;;9.80;21.90;;;;;;5036818;28;20474;-81
2023/03/31 05:13:22;;;;;;;4.30;2.57;;;10.00;1.00;;;;;;5037191;28;20452;-82
2023/03/31 05:15:50;;;;;;;3.30;2.50;;;10.10;1.00;;;;;;5038228;28;20567;-82
2023/03/31 05:18:17;;;;;;;3.30;2.70;;;10.10;1.00;;;;;;5038117;28;20452;-82
2023/03/31 05:20:44;;;;;;;3.13;2.30;;;10.00;1.00;;;;;;5037777;28;20886;-82
2023/03/31 05:23:11;;;;;;;4.73;2.30;;;10.00;1.00;;;;;;5038260;28;20791;-82
2023/03/31 05:25:41;;;;;;;6.93;2.20;;;10.40;39.80;;;;;;5037576;28;20458;-82
2023/03/31 05:28:08;;;;;;;6.30;2.60;;;10.00;1.00;;;;;;5038072;28;20476;-81
2023/03/31 05:30:35;;;;;;;4.83;2.63;;;9.90;1.00;;;;;;5037501;28;20453;-82
2023/03/31 05:33:02;;;;;;;6.37;3.00;;;10.00;1.00;;;;;;5037770;28;20461;-81
2023/03/31 05:35:29;;;;;;;3.23;2.70;;;9.90;31.90;;;;;;5036543;28;20539;-82
2023/03/31 05:37:56;;;;;;;4.70;2.27;;;10.00;1.00;;;;;;5037148;28;20448;-81
2023/03/31 05:40:23;;;;;;;4.50;2.40;;;10.00;1.00;;;;;;5041644;28;20508;-80
2023/03/31 05:42:51;;;;;;;8.37;2.97;;;9.90;1.00;;;;;;5047557;28;20452;-80
2023/03/31 05:45:18;;;;;;;6.60;2.83;;;9.90;1.00;;;;;;5040077;28;20448;-81
2023/03/31 05:47:45;;;;;;;7.20;3.17;;;9.90;1.00;;;;;;5037422;28;20841;-82
2023/03/31 05:50:12;;;;;;;4.93;2.87;;;10.00;1.00;;;;;;5037043;28;20467;-81
2023/03/31 05:52:38;;;;;;;9.03;3.07;;;10.20;5.10;;;;;;5036733;28;20506;-82
2023/03/31 05:55:06;;;;;;;9.53;3.47;;;10.20;1.00;;;;;;5037544;28;20488;-81
2023/03/31 05:57:33;;;;;;;5.77;2.50;;;10.20;1.00;;;;;;5037053;28;20456;-81
2023/03/31 06:00:02;;;;;;;10.50;5.63;;;10.40;1.00;;;;;;5039111;28;20946;-82
2023/03/31 06:02:29;;;;;;;7.00;3.07;;;10.40;1.00;;;;;;5040319;28;20430;-82
2023/03/31 06:04:56;;;;;;;6.53;3.13;;;10.50;1.00;;;;;;5044355;28;20844;-82
2023/03/31 06:07:24;;;;;;;3.57;2.53;;;10.80;1.00;;;;;;5045302;28;20526;-81
2023/03/31 06:09:51;;;;;;;5.97;3.50;;;10.60;1.00;;;;;;5049374;28;20501;-81
2023/03/31 06:12:18;;;;;;;10.73;3.37;;;10.70;1.00;;;;;;5045949;28;20452;-81
2023/03/31 06:14:45;;;;;;;5.63;3.30;;;10.50;1.00;;;;;;5044149;28;20541;-82
2023/03/31 06:17:13;;;;;;;16.73;3.40;;;10.60;1.00;;;;;;5041788;28;20499;-84
2023/03/31 06:19:40;;;;;;;4.77;3.20;;;10.50;1.00;;;;;;5043794;28;20459;-82
2023/03/31 06:22:07;;;;;;;7.57;4.60;;;10.50;1.00;;;;;;5052533;28;20453;-80
2023/03/31 06:24:34;;;;;;;4.37;3.60;;;10.50;1.00;;;;;;5051183;28;20444;-82
2023/03/31 06:27:02;;;;;;;6.20;2.90;;;10.20;1.00;;;;;;5044623;28;20477;-81
2023/03/31 06:29:29;;;;;;;8.50;2.97;;;10.40;1.00;;;;;;5042025;28;20437;-81
2023/03/31 06:31:56;;;;;;;4.57;2.33;;;10.50;1.00;;;;;;5043947;28;20466;-82
2023/03/31 06:34:24;;;;;;;5.33;3.03;;;10.50;1.00;;;;;;5044124;28;20483;-81
2023/03/31 06:36:52;;;;;;;11.83;3.33;;;10.50;1.00;;;;;;5043595;28;20457;-82
2023/03/31 06:39:19;;;;;;;6.90;2.70;;;10.40;1.00;;;;;;5043077;28;20449;-82
2023/03/31 06:41:46;;;;;;;7.80;4.50;;;10.40;1.00;;;;;;5042852;28;20453;-83
2023/03/31 06:44:15;;;;;;;17.00;6.13;;;10.40;1.00;;;;;;5044913;28;20519;-82
2023/03/31 06:46:42;;;;;;;7.47;3.73;;;10.50;1.00;;;;;;5044561;28;20466;-82
2023/03/31 06:49:09;;;;;;;6.17;3.90;;;10.60;1.00;;;;;;5044549;28;20485;-82
2023/03/31 06:51:37;;;;;;;7.00;3.60;;;10.60;1.00;;;;;;5045280;28;20436;-83
2023/03/31 06:54:04;;;;;;;3.27;2.97;;;10.80;99.90;;;;;;5041633;28;20471;-82
2023/03/31 06:56:31;;;;;;;4.67;4.30;;;10.90;99.90;;;;;;5045140;28;20464;-82
2023/03/31 06:58:57;;;;;;;7.10;3.23;;;10.90;99.90;;;;;;5041815;28;21034;-82
2023/03/31 07:01:24;;;;;;;10.63;3.43;;;11.00;99.90;;;;;;5044950;28;20450;-83
2023/03/31 07:03:51;;;;;;;8.10;2.90;;;11.00;99.90;;;;;;5050569;28;20454;-82
2023/03/31 07:06:18;;;;;;;11.17;2.53;;;11.10;99.90;;;;;;5053455;28;20469;-82
2023/03/31 07:08:47;;;;;;;5.83;2.83;;;11.20;99.90;;;;;;5054725;28;20519;-83
2023/03/31 07:11:13;;;;;;;7.13;2.73;;;11.30;99.90;;;;;;5057078;28;20428;-83
2023/03/31 07:13:40;;;;;;;8.60;3.37;;;11.40;60.50;;;;;;5059221;28;20440;-83
2023/03/31 07:16:08;;;;;;;5.03;3.40;;;11.60;9.00;;;;;;5055839;28;20466;-83
2023/03/31 07:18:36;;;;;;;5.70;2.40;;;11.60;1.00;;;;;;5050702;28;20441;-83
2023/03/31 07:21:06;;;;;;;8.23;3.03;;;11.40;1.00;;;;;;5045483;28;20515;-82
2023/03/31 07:23:33;;;;;;;3.30;2.30;;;11.70;1.00;;;;;;5043569;28;20460;-82
2023/03/31 07:26:01;;;;;;;5.93;2.90;;;11.60;1.00;;;;;;5058252;22;20516;-82
2023/03/31 07:28:28;;;;;;;6.00;2.33;;;11.70;1.00;;;;;;5060886;28;20484;-81
2023/03/31 07:30:55;;;;;;;4.87;2.47;;;11.80;1.00;;;;;;5061120;28;20501;-82
2023/03/31 07:33:22;;;;;;;13.87;4.30;;;11.90;1.00;;;;;;5060486;28;20447;-81
2023/03/31 07:35:49;;;;;;;8.97;4.67;;;12.40;1.00;;;;;;5060563;28;20457;-80
2023/03/31 07:38:16;;;;;;;7.50;3.00;;;12.20;1.00;;;;;;5060256;28;20465;-80
2023/03/31 07:40:44;;;;;;;9.30;2.63;;;12.20;1.00;;;;;;5059556;28;20476;-81
2023/03/31 07:43:12;;;;;;;3.70;2.33;;;12.30;1.00;;;;;;5059491;28;20455;-81
2023/03/31 07:45:40;;;;;;;8.37;4.00;;;12.30;99.90;;;;;;5059345;28;20453;-81
2023/03/31 07:48:07;;;;;;;6.07;3.30;;;12.30;99.90;;;;;;5059377;28;20503;-81
2023/03/31 07:50:34;;;;;;;8.10;3.13;;;12.50;99.90;;;;;;5059190;28;20487;-80
2023/03/31 07:53:01;;;;;;;6.77;3.00;;;12.60;99.90;;;;;;5060116;28;20450;-80
2023/03/31 07:55:28;;;;;;;6.50;2.20;;;12.70;99.90;;;;;;5069381;28;21005;-80
2023/03/31 07:57:55;;;;;;;8.80;2.70;;;12.80;99.90;;;;;;5072921;28;20475;-80
2023/03/31 08:00:23;;;;;;;3.00;1.93;;;12.80;99.90;;;;;;5064016;28;20446;-80
2023/03/31 08:02:50;;;;;;;5.07;2.13;;;12.90;43.30;;;;;;5060006;28;20453;-81
2023/03/31 08:05:19;;;;;;;7.87;2.50;;;13.00;1.00;;;;;;5060451;28;20428;-82
2023/03/31 08:07:48;;;;;;;8.77;2.73;;;13.00;1.00;;;;;;5056281;28;20483;-81
2023/03/31 08:10:19;;;;;;;9.10;2.20;;;13.10;99.90;;;;;;5055880;28;20503;-81
2023/03/31 08:12:46;;;;;;;6.67;2.20;;;13.00;99.90;;;;;;5057764;28;20472;-81
2023/03/31 08:15:12;;;;;;;5.70;2.20;;;13.20;1.00;;;;;;5065320;28;20482;-82
2023/03/31 08:17:41;;;;;;;6.10;2.13;;;13.20;3.70;;;;;;5067205;28;20434;-81
2023/03/31 08:20:09;;;;;;;6.43;3.67;;;13.20;1.00;;;;;;5070244;28;20513;-81
2023/03/31 08:22:36;;;;;;;4.93;2.73;;;13.30;1.00;;;;;;5071157;28;20453;-81
2023/03/31 08:25:03;;;;;;;5.87;2.07;;;13.50;1.00;;;;;;5070168;28;20449;-81
2023/03/31 08:27:33;;;;;;;3.67;2.37;;;13.50;99.90;;;;;;5070458;28;20478;-82
2023/03/31 08:30:03;;;;;;;4.03;1.83;;;13.60;99.90;;;;;;5070769;28;20476;-81
2023/03/31 08:32:30;;;;;;;6.10;2.33;;;13.70;99.90;;;;;;5069457;28;20451;-80
2023/03/31 08:34:59;;;;;;;4.23;2.20;;;13.70;1.00;;;;;;5070027;28;20532;-80
2023/03/31 08:37:27;;;;;;;8.87;2.73;;;13.80;1.00;;;;;;5069795;28;20908;-81
2023/03/31 08:39:54;;;;;;;5.70;2.30;;;13.80;1.00;;;;;;5068867;28;20948;-80
2023/03/31 08:42:28;;;;;;;3.63;2.43;;;13.70;99.90;;;;;;5067817;28;20508;-80
2023/03/31 08:45:00;;;;;;;2.90;2.50;;;13.50;1.00;;;;;;5067940;28;20467;-80
2023/03/31 08:47:29;;;;;;;6.53;2.43;;;13.50;1.00;;;;;;5069951;28;20528;-80
2023/03/31 08:50:00;;;;;;;6.60;2.30;;;13.70;1.00;;;;;;5069965;28;20417;-80
2023/03/31 08:52:32;;;;;;;3.80;2.50;;;13.80;1.00;;;;;;5069224;28;20440;-81
2023/03/31 08:55:03;;;;;;;6.87;2.60;;;13.80;99.90;;;;;;5068996;28;20465;-81
2023/03/31 08:57:36;;;;;;;1.93;1.47;;;14.00;1.00;;;;;;5066419;28;20605;-80
2023/03/31 09:00:05;;;;;;;11.20;2.77;;;13.60;99.90;;;;;;5072234;28;20479;-81
2023/03/31 09:02:41;;;;;;;4.63;2.00;;;13.70;1.00;;;;;;5074916;28;20442;-81
2023/03/31 09:05:24;;;;;;;9.53;2.73;;;13.80;99.90;;;;;;5065678;28;20520;-81
2023/03/31 09:08:02;;;;;;;3.80;2.37;;;13.90;99.90;;;;;;5063411;28;20514;-81
2023/03/31 09:10:45;;;;;;;5.47;2.50;;;13.80;99.90;;;;;;5072969;28;20434;-82
2023/03/31 09:13:34;;;;;;;5.00;2.53;;;13.70;99.90;;;;;;5073463;28;20506;-82
2023/03/31 09:16:09;;;;;;;4.10;2.57;;;13.80;99.90;;;;;;5071635;28;20473;-82
2023/03/31 09:18:39;;;;;;;4.43;2.00;;;13.80;99.90;;;;;;5071923;28;20394;-82
2023/03/31 09:21:16;;;;;;;3.40;2.00;;;14.10;1.00;;;;;;5068357;28;20434;-81
2023/03/31 09:23:46;;;;;;;4.00;3.17;;;14.20;99.90;;;;;;5060535;28;20453;-81
2023/03/31 09:26:21;;;;;;;3.30;1.53;;;14.40;99.90;;;;;;5058631;28;20979;-81
2023/03/31 09:28:49;;;;;;;6.23;2.17;;;14.60;99.90;;;;;;5065074;28;20505;-81
2023/03/31 09:31:19;;;;;;;6.37;3.03;;;14.60;99.90;;;;;;5061284;28;20454;-81
2023/03/31 09:33:47;;;;;;;4.90;3.00;;;14.70;99.90;;;;;;5057979;28;20517;-81
2023/03/31 09:36:17;;;;;;;4.43;2.57;;;14.70;99.90;;;;;;5057931;28;20466;-81
2023/03/31 09:38:46;;;;;;;2.70;2.00;;;14.70;99.90;;;;;;5069148;28;20479;-81
2023/03/31 09:41:14;;;;;;;7.80;2.90;;;15.00;99.90;;;;;;5071183;28;20420;-80
2023/03/31 09:43:42;;;;;;;11.33;2.90;;;14.90;99.70;;;;;;5070701;28;20448;-81
2023/03/31 09:46:17;;;;;;;2.53;1.90;;;15.50;99.90;;;;;;5068930;28;20473;-81
2023/03/31 09:48:52;;;;;;;5.53;2.90;;;14.90;99.90;;;;;;5072802;28;20467;-81
2023/03/31 09:51:25;;;;;;;5.80;2.23;;;14.60;99.90;;;;;;5071600;28;20430;-81
2023/03/31 09:53:58;;;;;;;3.00;1.80;;;14.60;99.90;;;;;;5065931;28;20439;-81
2023/03/31 09:56:45;;;;;;;3.57;1.60;;;14.40;99.90;;;;;;5061079;28;20461;-82
2023/03/31 09:59:16;;;;;;;2.83;1.97;;;14.70;99.90;;;;;;5061182;28;20448;-81
2023/03/31 10:01:45;;;;;;;5.17;2.60;;;15.50;99.90;;;;;;5061359;28;20431;-81
2023/03/31 10:04:20;;;;;;;3.90;2.63;;;15.70;1.00;;;;;;5060131;28;20454;-81
2023/03/31 10:06:51;;;;;;;6.60;3.00;;;15.70;1.00;;;;;;5060525;28;20470;-82
2023/03/31 10:09:21;;;;;;;2.50;2.30;;;15.80;1.00;;;;;;5060907;28;20496;-81
2023/03/31 10:12:07;;;;;;;6.27;2.40;;;15.30;1.00;;;;;;5061606;28;20423;-81
2023/03/31 10:14:41;;;;;;;3.97;1.80;;;14.90;99.90;;;;;;5062366;28;20433;-81
2023/03/31 10:17:14;;;;;;;5.83;2.43;;;14.70;99.90;;;;;;5060727;28;20472;-81
2023/03/31 10:19:48;;;;;;;6.43;2.50;;;14.30;1.00;;;;;;5059983;28;20521;-81
2023/03/31 10:22:27;;;;;;;3.33;3.00;;;14.10;1.00;;;;;;5060663;28;20657;-80
2023/03/31 10:25:04;;;;;;;8.30;3.73;;;14.00;35.60;;;;;;5061095;28;20965;-82
2023/03/31 10:27:32;;;;;;;3.53;3.33;;;14.10;1.00;;;;;;5060259;28;20490;-81
2023/03/31 10:30:01;;;;;;;6.77;5.70;;;14.00;48.80;;;;;;5062311;28;20485;-80
2023/03/31 10:32:31;;;;;;;4.17;3.90;;;14.10;1.00;;;;;;5062377;28;20456;-81
2023/03/31 10:35:03;;;;;;;7.30;4.70;;;14.00;45.60;;;;;;5060772;28;20460;-82
2023/03/31 10:37:35;;;;;;;10.33;5.17;;;13.90;99.90;;;;;;5061418;28;20849;-81
2023/03/31 10:40:05;;;;;;;8.33;4.50;;;13.90;1.00;;;;;;5070036;28;20453;-81
2023/03/31 10:42:32;;;;;;;5.30;4.90;;;13.90;99.90;;;;;;5065607;28;20433;-81
2023/03/31 10:45:23;;;;;;;7.83;6.47;;;14.00;99.90;;;;;;5061769;28;20480;-80
2023/03/31 10:47:53;;;;;;;11.37;7.20;;;14.20;99.90;;;;;;5063466;28;20474;-81
2023/03/31 10:50:27;;;;;;;8.60;5.10;;;14.30;1.00;;;;;;5064468;28;20476;-80
2023/03/31 10:53:02;;;;;;;6.30;5.80;;;14.30;99.90;;;;;;5074556;28;20429;-79
2023/03/31 10:55:35;;;;;;;5.37;4.87;;;14.30;1.00;;;;;;5074812;28;20560;-80
2023/03/31 10:58:09;;;;;;;5.73;4.63;;;14.20;1.00;;;;;;5069172;28;20488;-80
2023/03/31 11:00:42;;;;;;;5.30;4.63;;;14.00;99.90;;;;;;5062172;28;20432;-80
2023/03/31 11:03:32;;;;;;;5.77;4.67;;;13.60;1.00;;;;;;5061152;28;20876;-80
2023/03/31 11:06:05;;;;;;;5.27;4.10;;;13.10;99.90;;;;;;5060621;28;20407;-80
2023/03/31 11:08:47;;;;;;;5.70;4.20;;;13.30;1.00;;;;;;5060494;28;20504;-81
2023/03/31 11:11:31;;;;;;;7.97;4.97;;;13.10;51.00;;;;;;5059871;28;20433;-80
2023/03/31 11:14:05;;;;;;;4.70;3.77;;;13.20;99.90;;;;;;5060556;28;20429;-80
2023/03/31 11:16:43;;;;;;;5.10;3.50;;;13.40;99.90;;;;;;5062313;28;20472;-80
2023/03/31 11:19:22;;;;;;;4.00;3.60;;;13.70;99.90;;;;;;5063761;28;20430;-80
2023/03/31 11:21:57;;;;;;;4.17;2.30;;;13.90;1.00;;;;;;5061401;28;20436;-81
2023/03/31 11:24:37;;;;;;;2.43;2.33;;;13.90;1.00;;;;;;5061706;28;20454;-82
2023/03/31 11:27:18;;;;;;;5.13;2.30;;;13.80;1.00;;;;;;5059231;28;20584;-82
2023/03/31 11:29:48;;;;;;;4.90;2.30;;;13.60;1.00;;;;;;5058946;28;20810;-82
2023/03/31 11:32:42;;;;;;;5.23;2.17;;;13.60;99.90;;;;;;5061830;28;20766;-81
2023/03/31 11:35:34;;;;;;;4.70;2.40;;;13.70;99.90;;;;;;5074165;28;20446;-81
2023/03/31 11:38:35;;;;;;;5.90;3.03;;;13.80;99.90;;;;;;5075915;28;20463;-81
2023/03/31 11:41:08;;;;;;;3.73;2.47;;;13.90;1.00;;;;;;5059729;28;20407;-80
2023/03/31 11:43:39;;;;;;;4.83;2.50;;;13.80;1.00;;;;;;5059581;28;20431;-81
2023/03/31 11:46:11;;;;;;;5.57;2.80;;;14.00;1.00;;;;;;5069744;28;20476;-81
2023/03/31 11:48:44;;;;;;;7.00;2.47;;;14.10;1.00;;;;;;5056396;28;20505;-81
2023/03/31 11:51:16;;;;;;;5.30;3.33;;;14.20;1.00;;;;;;5062775;28;20439;-81
2023/03/31 11:53:45;;;;;;;4.40;2.73;;;14.50;1.00;;;;;;5061263;28;20429;-81
2023/03/31 11:56:14;;;;;;;5.33;3.60;;;14.20;99.90;;;;;;5057578;28;20470;-82
2023/03/31 11:58:46;;;;;;;5.77;3.40;;;14.30;1.00;;;;;;5056966;28;20482;-81
2023/03/31 12:01:20;;;;;;;4.87;3.60;;;14.20;99.90;;;;;;5058385;28;20801;-81
2023/03/31 12:03:54;;;;;;;4.13;3.10;;;14.30;1.00;;;;;;5059211;28;20426;-80
2023/03/31 12:06:23;;;;;;;7.27;3.57;;;14.20;1.00;;;;;;5057028;28;20977;-80
2023/03/31 12:09:03;;;;;;;5.80;4.00;;;14.10;1.00;;;;;;5057783;28;20575;-81
2023/03/31 12:11:38;;;;;;;6.57;3.00;;;14.10;1.00;;;;;;5057663;28;20484;-80
2023/03/31 12:14:15;;;;;;;7.23;4.10;;;14.10;1.00;;;;;;5064909;28;20533;-80
2023/03/31 12:16:45;;;;;;;11.50;5.83;;;14.40;38.30;;;;;;5077800;28;20466;-80
2023/03/31 12:19:17;;;;;;;6.00;4.43;;;14.50;1.00;;;;;;5063990;28;20786;-80
2023/03/31 12:21:49;;;;;;;5.70;4.57;;;14.50;1.00;;;;;;5059897;28;20506;-81
2023/03/31 12:24:16;;;;;;;9.13;3.87;;;14.70;1.00;;;;;;5059461;28;20440;-81
2023/03/31 12:26:56;;;;;;;17.63;4.10;;;14.70;99.90;;;;;;5058871;28;20482;-81
2023/03/31 12:29:30;;;;;;;4.90;3.40;;;14.60;32.70;;;;;;5059141;28;20476;-82
2023/03/31 12:32:01;;;;;;;2.87;2.40;;;14.70;1.00;;;;;;5059339;28;20939;-81
2023/03/31 12:34:29;;;;;;;12.13;4.33;;;14.60;1.00;;;;;;5060026;28;20404;-82
2023/03/31 12:37:14;;;;;;;4.80;3.03;;;14.40;1.00;;;;;;5060841;28;20466;-82
2023/03/31 12:39:51;;;;;;;5.30;3.40;;;14.40;1.00;;;;;;5062561;28;20429;-82
2023/03/31 12:42:47;;;;;;;3.13;2.60;;;14.10;99.90;;;;;;5060930;28;20412;-82
2023/03/31 12:45:24;;;;;;;5.20;2.43;;;12.70;99.90;;;;;;5067144;28;20473;-82
2023/03/31 12:48:27;;;;;;;4.33;2.10;;;12.70;99.90;;;;;;5071752;28;20555;-80
2023/03/31 12:51:08;;;;;;;5.97;2.70;;;12.10;99.90;;;;;;5071164;28;20509;-82
2023/03/31 12:53:43;;;;;;;4.00;2.30;;;11.70;1.00;;;;;;5070585;28;20435;-80
2023/03/31 12:56:10;;;;;;;2.70;2.10;;;11.50;1.00;;;;;;5063890;28;20544;-80
2023/03/31 12:58:46;;;;;;;4.60;2.67;;;11.50;99.90;;;;;;5063052;28;20551;-82
2023/03/31 13:01:19;;;;;;;4.40;3.50;;;11.50;99.90;;;;;;5062095;28;20430;-82
2023/03/31 13:03:48;;;;;;;4.60;3.73;;;11.40;99.90;;;;;;5061732;28;20443;-81
2023/03/31 13:06:50;;;;;;;6.80;4.57;;;11.50;1.00;;;;;;5058896;28;20828;-81
2023/03/31 13:09:45;;;;;;;4.37;4.03;;;11.60;1.00;;;;;;5058428;28;20464;-81
2023/03/31 13:12:22;;;;;;;3.50;3.30;;;11.60;1.00;;;;;;5053225;28;20874;-82
2023/03/31 13:14:53;;;;;;;5.53;4.07;;;11.60;1.00;;;;;;5058344;28;20443;-81
2023/03/31 13:17:31;;;;;;;7.30;4.43;;;11.70;1.00;;;;;;5060087;28;20518;-81